sensor_id;sensor_type;location;lat;lon;timestamp;P1;durP1;ratioP1;P2;durP2;ratioP2
67804;SDS011;54603;45.638;11.714;2022-11-14T00:00:35;3.20;;;2.70;;
67804;SDS011;54603;45.638;11.714;2022-11-14T00:03:02;3.50;;;3.20;;
67804;SDS011;54603;45.638;11.714;2022-11-14T00:05:30;4.10;;;3.70;;
67804;SDS011;54603;45.638;11.714;2022-11-14T00:07:56;5.90;;;3.70;;
67804;SDS011;54603;45.638;11.714;2022-11-14T00:10:21;4.00;;;3.60;;
67804;SDS011;54603;45.638;11.714;2022-11-14T00:12:47;4.00;;;3.60;;
67804;SDS011;54603;45.638;11.714;2022-11-14T00:15:13;5.60;;;3.80;;
67804;SDS011;54603;45.638;11.714;2022-11-14T00:17:39;5.10;;;4.10;;
67804;SDS011;54603;45.638;11.714;2022-11-14T00:20:06;4.10;;;3.70;;
67804;SDS011;54603;45.638;11.714;2022-11-14T00:22:32;5.00;;;3.40;;
67804;SDS011;54603;45.638;11.714;2022-11-14T00:24:58;4.00;;;3.60;;
67804;SDS011;54603;45.638;11.714;2022-11-14T00:27:24;4.20;;;3.40;;
67804;SDS011;54603;45.638;11.714;2022-11-14T00:29:49;4.10;;;3.70;;
67804;SDS011;54603;45.638;11.714;2022-11-14T00:32:15;4.00;;;3.50;;
67804;SDS011;54603;45.638;11.714;2022-11-14T00:34:42;3.40;;;3.00;;
67804;SDS011;54603;45.638;11.714;2022-11-14T00:37:07;3.10;;;2.80;;
67804;SDS011;54603;45.638;11.714;2022-11-14T00:39:33;4.20;;;3.50;;
67804;SDS011;54603;45.638;11.714;2022-11-14T00:41:58;4.30;;;3.60;;
67804;SDS011;54603;45.638;11.714;2022-11-14T00:44:24;3.70;;;3.40;;
67804;SDS011;54603;45.638;11.714;2022-11-14T00:46:49;4.70;;;3.90;;
67804;SDS011;54603;45.638;11.714;2022-11-14T00:49:15;3.90;;;3.50;;
67804;SDS011;54603;45.638;11.714;2022-11-14T00:51:40;3.80;;;3.50;;
67804;SDS011;54603;45.638;11.714;2022-11-14T00:54:06;4.50;;;4.00;;
67804;SDS011;54603;45.638;11.714;2022-11-14T00:56:31;4.80;;;3.90;;
67804;SDS011;54603;45.638;11.714;2022-11-14T00:58:57;4.50;;;3.80;;
67804;SDS011;54603;45.638;11.714;2022-11-14T01:01:23;4.90;;;4.10;;
67804;SDS011;54603;45.638;11.714;2022-11-14T01:03:49;4.00;;;3.70;;
67804;SDS011;54603;45.638;11.714;2022-11-14T01:06:15;3.90;;;3.40;;
67804;SDS011;54603;45.638;11.714;2022-11-14T01:08:42;3.30;;;2.90;;
67804;SDS011;54603;45.638;11.714;2022-11-14T01:11:09;3.20;;;2.90;;
67804;SDS011;54603;45.638;11.714;2022-11-14T01:13:36;3.60;;;3.20;;
67804;SDS011;54603;45.638;11.714;2022-11-14T01:16:02;4.20;;;3.60;;
67804;SDS011;54603;45.638;11.714;2022-11-14T01:18:28;4.30;;;3.90;;
67804;SDS011;54603;45.638;11.714;2022-11-14T01:20:53;4.80;;;3.80;;
67804;SDS011;54603;45.638;11.714;2022-11-14T01:23:19;4.00;;;3.50;;
67804;SDS011;54603;45.638;11.714;2022-11-14T01:25:45;4.00;;;3.60;;
67804;SDS011;54603;45.638;11.714;2022-11-14T01:28:11;4.10;;;3.70;;
67804;SDS011;54603;45.638;11.714;2022-11-14T01:30:38;4.50;;;4.10;;
67804;SDS011;54603;45.638;11.714;2022-11-14T01:33:05;4.30;;;3.90;;
67804;SDS011;54603;45.638;11.714;2022-11-14T01:35:31;4.20;;;3.80;;
67804;SDS011;54603;45.638;11.714;2022-11-14T01:37:58;4.10;;;3.70;;
67804;SDS011;54603;45.638;11.714;2022-11-14T01:40:24;3.70;;;3.40;;
67804;SDS011;54603;45.638;11.714;2022-11-14T01:46:16;3.50;;;2.80;;
67804;SDS011;54603;45.638;11.714;2022-11-14T01:48:59;3.90;;;3.50;;
67804;SDS011;54603;45.638;11.714;2022-11-14T01:51:38;4.00;;;3.70;;
67804;SDS011;54603;45.638;11.714;2022-11-14T01:54:15;4.10;;;3.60;;
67804;SDS011;54603;45.638;11.714;2022-11-14T01:56:54;4.00;;;3.60;;
67804;SDS011;54603;45.638;11.714;2022-11-14T01:59:23;4.50;;;4.10;;
67804;SDS011;54603;45.638;11.714;2022-11-14T02:01:52;4.20;;;3.70;;
67804;SDS011;54603;45.638;11.714;2022-11-14T02:04:26;4.40;;;4.00;;
67804;SDS011;54603;45.638;11.714;2022-11-14T02:06:54;4.60;;;3.60;;
67804;SDS011;54603;45.638;11.714;2022-11-14T02:09:23;4.30;;;3.90;;
67804;SDS011;54603;45.638;11.714;2022-11-14T02:11:49;4.80;;;3.80;;
67804;SDS011;54603;45.638;11.714;2022-11-14T02:14:16;3.80;;;3.30;;
67804;SDS011;54603;45.638;11.714;2022-11-14T02:16:41;3.20;;;2.90;;
67804;SDS011;54603;45.638;11.714;2022-11-14T02:19:08;3.10;;;2.80;;
67804;SDS011;54603;45.638;11.714;2022-11-14T02:21:34;4.30;;;3.50;;
67804;SDS011;54603;45.638;11.714;2022-11-14T02:23:59;4.10;;;3.70;;
67804;SDS011;54603;45.638;11.714;2022-11-14T02:26:25;4.00;;;3.60;;
67804;SDS011;54603;45.638;11.714;2022-11-14T02:28:51;4.20;;;3.80;;
67804;SDS011;54603;45.638;11.714;2022-11-14T02:31:17;4.30;;;3.60;;
67804;SDS011;54603;45.638;11.714;2022-11-14T02:33:43;4.20;;;3.80;;
67804;SDS011;54603;45.638;11.714;2022-11-14T02:36:09;3.70;;;3.40;;
67804;SDS011;54603;45.638;11.714;2022-11-14T02:38:35;4.30;;;3.90;;
67804;SDS011;54603;45.638;11.714;2022-11-14T02:41:01;4.20;;;3.80;;
67804;SDS011;54603;45.638;11.714;2022-11-14T02:43:26;4.00;;;3.60;;
67804;SDS011;54603;45.638;11.714;2022-11-14T02:45:52;4.40;;;4.00;;
67804;SDS011;54603;45.638;11.714;2022-11-14T02:48:18;3.90;;;3.50;;
67804;SDS011;54603;45.638;11.714;2022-11-14T02:50:44;3.50;;;3.10;;
67804;SDS011;54603;45.638;11.714;2022-11-14T02:53:12;3.90;;;3.00;;
67804;SDS011;54603;45.638;11.714;2022-11-14T02:55:37;3.80;;;3.40;;
67804;SDS011;54603;45.638;11.714;2022-11-14T02:58:03;3.90;;;3.50;;
67804;SDS011;54603;45.638;11.714;2022-11-14T03:00:28;3.70;;;3.30;;
67804;SDS011;54603;45.638;11.714;2022-11-14T03:02:54;4.00;;;3.60;;
67804;SDS011;54603;45.638;11.714;2022-11-14T03:05:20;4.60;;;3.90;;
67804;SDS011;54603;45.638;11.714;2022-11-14T03:07:45;4.60;;;4.20;;
67804;SDS011;54603;45.638;11.714;2022-11-14T03:10:11;4.20;;;3.90;;
67804;SDS011;54603;45.638;11.714;2022-11-14T03:12:38;4.00;;;3.60;;
67804;SDS011;54603;45.638;11.714;2022-11-14T03:15:04;5.10;;;4.20;;
67804;SDS011;54603;45.638;11.714;2022-11-14T03:17:31;4.30;;;3.80;;
67804;SDS011;54603;45.638;11.714;2022-11-14T03:19:58;4.40;;;4.00;;
67804;SDS011;54603;45.638;11.714;2022-11-14T03:22:24;4.00;;;3.60;;
67804;SDS011;54603;45.638;11.714;2022-11-14T03:24:50;3.40;;;3.10;;
67804;SDS011;54603;45.638;11.714;2022-11-14T03:27:16;3.00;;;2.70;;
67804;SDS011;54603;45.638;11.714;2022-11-14T03:29:41;3.70;;;3.40;;
67804;SDS011;54603;45.638;11.714;2022-11-14T03:32:07;4.20;;;3.60;;
67804;SDS011;54603;45.638;11.714;2022-11-14T03:34:32;4.30;;;3.90;;
67804;SDS011;54603;45.638;11.714;2022-11-14T03:36:58;4.20;;;3.80;;
67804;SDS011;54603;45.638;11.714;2022-11-14T03:39:25;3.70;;;3.40;;
67804;SDS011;54603;45.638;11.714;2022-11-14T03:41:51;3.90;;;3.60;;
67804;SDS011;54603;45.638;11.714;2022-11-14T03:44:17;4.40;;;4.00;;
67804;SDS011;54603;45.638;11.714;2022-11-14T03:46:42;4.80;;;3.60;;
67804;SDS011;54603;45.638;11.714;2022-11-14T03:49:07;4.30;;;3.90;;
67804;SDS011;54603;45.638;11.714;2022-11-14T03:51:33;4.40;;;3.70;;
67804;SDS011;54603;45.638;11.714;2022-11-14T03:53:59;3.80;;;3.50;;
67804;SDS011;54603;45.638;11.714;2022-11-14T03:56:25;3.10;;;2.80;;
67804;SDS011;54603;45.638;11.714;2022-11-14T03:58:51;3.40;;;3.10;;
67804;SDS011;54603;45.638;11.714;2022-11-14T04:01:16;3.50;;;3.20;;
67804;SDS011;54603;45.638;11.714;2022-11-14T04:03:42;4.20;;;3.80;;
67804;SDS011;54603;45.638;11.714;2022-11-14T04:06:07;3.90;;;3.50;;
67804;SDS011;54603;45.638;11.714;2022-11-14T04:08:33;4.00;;;3.60;;
67804;SDS011;54603;45.638;11.714;2022-11-14T04:10:58;4.10;;;3.70;;
67804;SDS011;54603;45.638;11.714;2022-11-14T04:13:24;4.30;;;3.90;;
67804;SDS011;54603;45.638;11.714;2022-11-14T04:15:53;3.80;;;3.40;;
67804;SDS011;54603;45.638;11.714;2022-11-14T04:18:20;4.50;;;3.80;;
67804;SDS011;54603;45.638;11.714;2022-11-14T04:20:46;4.10;;;3.70;;
67804;SDS011;54603;45.638;11.714;2022-11-14T04:23:11;4.20;;;3.80;;
67804;SDS011;54603;45.638;11.714;2022-11-14T04:25:37;3.50;;;3.20;;
67804;SDS011;54603;45.638;11.714;2022-11-14T04:28:03;3.20;;;2.80;;
67804;SDS011;54603;45.638;11.714;2022-11-14T04:30:28;3.60;;;3.20;;
67804;SDS011;54603;45.638;11.714;2022-11-14T04:32:54;3.90;;;3.40;;
67804;SDS011;54603;45.638;11.714;2022-11-14T04:35:20;3.90;;;3.60;;
67804;SDS011;54603;45.638;11.714;2022-11-14T04:37:45;3.50;;;3.20;;
67804;SDS011;54603;45.638;11.714;2022-11-14T04:40:11;4.10;;;3.70;;
67804;SDS011;54603;45.638;11.714;2022-11-14T04:42:36;3.80;;;3.40;;
67804;SDS011;54603;45.638;11.714;2022-11-14T04:45:02;4.20;;;3.80;;
67804;SDS011;54603;45.638;11.714;2022-11-14T04:47:27;4.00;;;3.70;;
67804;SDS011;54603;45.638;11.714;2022-11-14T04:49:53;3.80;;;3.50;;
67804;SDS011;54603;45.638;11.714;2022-11-14T04:52:18;3.80;;;3.50;;
67804;SDS011;54603;45.638;11.714;2022-11-14T04:54:44;4.60;;;3.70;;
67804;SDS011;54603;45.638;11.714;2022-11-14T04:57:10;3.60;;;3.30;;
67804;SDS011;54603;45.638;11.714;2022-11-14T04:59:36;3.70;;;3.10;;
67804;SDS011;54603;45.638;11.714;2022-11-14T05:02:01;3.00;;;2.70;;
67804;SDS011;54603;45.638;11.714;2022-11-14T05:04:27;3.30;;;3.00;;
67804;SDS011;54603;45.638;11.714;2022-11-14T05:06:52;3.60;;;3.30;;
67804;SDS011;54603;45.638;11.714;2022-11-14T05:09:18;3.90;;;3.50;;
67804;SDS011;54603;45.638;11.714;2022-11-14T05:11:43;3.70;;;3.40;;
67804;SDS011;54603;45.638;11.714;2022-11-14T05:14:09;3.80;;;3.50;;
67804;SDS011;54603;45.638;11.714;2022-11-14T05:16:34;3.80;;;3.50;;
67804;SDS011;54603;45.638;11.714;2022-11-14T05:19:00;3.70;;;3.40;;
67804;SDS011;54603;45.638;11.714;2022-11-14T05:21:25;3.40;;;3.10;;
67804;SDS011;54603;45.638;11.714;2022-11-14T05:23:51;4.00;;;3.60;;
67804;SDS011;54603;45.638;11.714;2022-11-14T05:26:17;3.80;;;3.50;;
67804;SDS011;54603;45.638;11.714;2022-11-14T05:28:43;3.70;;;3.10;;
67804;SDS011;54603;45.638;11.714;2022-11-14T05:31:10;3.10;;;2.80;;
67804;SDS011;54603;45.638;11.714;2022-11-14T05:33:37;3.30;;;3.00;;
67804;SDS011;54603;45.638;11.714;2022-11-14T05:36:07;3.40;;;3.10;;
67804;SDS011;54603;45.638;11.714;2022-11-14T05:38:37;3.80;;;3.40;;
67804;SDS011;54603;45.638;11.714;2022-11-14T05:41:06;3.60;;;3.30;;
67804;SDS011;54603;45.638;11.714;2022-11-14T05:43:33;3.70;;;3.40;;
67804;SDS011;54603;45.638;11.714;2022-11-14T05:45:59;3.90;;;3.50;;
67804;SDS011;54603;45.638;11.714;2022-11-14T05:48:25;4.20;;;3.60;;
67804;SDS011;54603;45.638;11.714;2022-11-14T05:50:57;3.70;;;3.30;;
67804;SDS011;54603;45.638;11.714;2022-11-14T05:53:24;3.50;;;3.20;;
67804;SDS011;54603;45.638;11.714;2022-11-14T05:55:51;4.00;;;3.60;;
67804;SDS011;54603;45.638;11.714;2022-11-14T05:58:17;3.50;;;3.20;;
67804;SDS011;54603;45.638;11.714;2022-11-14T06:00:42;3.20;;;2.90;;
67804;SDS011;54603;45.638;11.714;2022-11-14T06:03:08;3.20;;;2.90;;
67804;SDS011;54603;45.638;11.714;2022-11-14T06:05:34;3.00;;;2.70;;
67804;SDS011;54603;45.638;11.714;2022-11-14T06:08:00;3.60;;;3.30;;
67804;SDS011;54603;45.638;11.714;2022-11-14T06:10:25;3.50;;;3.20;;
67804;SDS011;54603;45.638;11.714;2022-11-14T06:12:51;4.10;;;3.50;;
67804;SDS011;54603;45.638;11.714;2022-11-14T06:15:18;3.30;;;3.00;;
67804;SDS011;54603;45.638;11.714;2022-11-14T06:17:47;4.00;;;3.10;;
67804;SDS011;54603;45.638;11.714;2022-11-14T06:20:14;4.00;;;3.60;;
67804;SDS011;54603;45.638;11.714;2022-11-14T06:22:43;4.10;;;3.30;;
67804;SDS011;54603;45.638;11.714;2022-11-14T06:25:10;3.70;;;3.40;;
67804;SDS011;54603;45.638;11.714;2022-11-14T06:27:40;4.00;;;3.70;;
67804;SDS011;54603;45.638;11.714;2022-11-14T06:30:07;3.90;;;3.50;;
67804;SDS011;54603;45.638;11.714;2022-11-14T06:32:33;3.20;;;2.90;;
67804;SDS011;54603;45.638;11.714;2022-11-14T06:34:58;3.20;;;2.90;;
67804;SDS011;54603;45.638;11.714;2022-11-14T06:37:24;3.00;;;2.70;;
67804;SDS011;54603;45.638;11.714;2022-11-14T06:39:50;3.40;;;3.10;;
67804;SDS011;54603;45.638;11.714;2022-11-14T06:42:18;3.70;;;3.40;;
67804;SDS011;54603;45.638;11.714;2022-11-14T06:44:44;4.00;;;3.40;;
67804;SDS011;54603;45.638;11.714;2022-11-14T06:47:13;5.70;;;3.50;;
67804;SDS011;54603;45.638;11.714;2022-11-14T06:49:41;3.30;;;3.00;;
67804;SDS011;54603;45.638;11.714;2022-11-14T06:52:06;3.60;;;3.30;;
67804;SDS011;54603;45.638;11.714;2022-11-14T06:54:37;3.80;;;3.50;;
67804;SDS011;54603;45.638;11.714;2022-11-14T06:57:05;4.00;;;3.70;;
67804;SDS011;54603;45.638;11.714;2022-11-14T06:59:33;4.30;;;3.30;;
67804;SDS011;54603;45.638;11.714;2022-11-14T07:02:02;3.60;;;3.30;;
67804;SDS011;54603;45.638;11.714;2022-11-14T07:04:30;3.50;;;3.20;;
67804;SDS011;54603;45.638;11.714;2022-11-14T07:07:13;5.00;;;2.90;;
67804;SDS011;54603;45.638;11.714;2022-11-14T07:09:47;3.20;;;2.90;;
67804;SDS011;54603;45.638;11.714;2022-11-14T07:12:16;3.60;;;3.20;;
67804;SDS011;54603;45.638;11.714;2022-11-14T07:14:43;4.10;;;3.70;;
67804;SDS011;54603;45.638;11.714;2022-11-14T07:17:25;5.10;;;3.40;;
67804;SDS011;54603;45.638;11.714;2022-11-14T07:20:00;3.40;;;3.20;;
67804;SDS011;54603;45.638;11.714;2022-11-14T07:22:28;5.30;;;3.40;;
67804;SDS011;54603;45.638;11.714;2022-11-14T07:24:55;4.10;;;3.70;;
67804;SDS011;54603;45.638;11.714;2022-11-14T07:27:23;3.60;;;3.30;;
67804;SDS011;54603;45.638;11.714;2022-11-14T07:29:50;3.70;;;3.20;;
67804;SDS011;54603;45.638;11.714;2022-11-14T07:32:17;3.30;;;3.00;;
67804;SDS011;54603;45.638;11.714;2022-11-14T07:34:44;3.60;;;3.20;;
67804;SDS011;54603;45.638;11.714;2022-11-14T07:37:12;10.30;;;3.00;;
67804;SDS011;54603;45.638;11.714;2022-11-14T07:39:39;4.60;;;3.30;;
67804;SDS011;54603;45.638;11.714;2022-11-14T07:42:07;5.90;;;3.10;;
67804;SDS011;54603;45.638;11.714;2022-11-14T07:44:33;5.90;;;3.40;;
67804;SDS011;54603;45.638;11.714;2022-11-14T07:46:59;4.50;;;3.30;;
67804;SDS011;54603;45.638;11.714;2022-11-14T07:49:25;6.80;;;3.40;;
67804;SDS011;54603;45.638;11.714;2022-11-14T07:51:51;7.20;;;3.90;;
67804;SDS011;54603;45.638;11.714;2022-11-14T07:54:16;5.40;;;3.80;;
67804;SDS011;54603;45.638;11.714;2022-11-14T07:56:42;3.90;;;3.40;;
67804;SDS011;54603;45.638;11.714;2022-11-14T07:59:08;5.50;;;3.50;;
67804;SDS011;54603;45.638;11.714;2022-11-14T08:01:36;4.20;;;3.20;;
67804;SDS011;54603;45.638;11.714;2022-11-14T08:04:03;3.80;;;3.40;;
67804;SDS011;54603;45.638;11.714;2022-11-14T08:06:33;3.10;;;2.80;;
67804;SDS011;54603;45.638;11.714;2022-11-14T08:09:09;4.40;;;3.00;;
67804;SDS011;54603;45.638;11.714;2022-11-14T08:11:36;3.60;;;3.00;;
67804;SDS011;54603;45.638;11.714;2022-11-14T08:14:14;4.10;;;2.90;;
67804;SDS011;54603;45.638;11.714;2022-11-14T08:16:42;5.50;;;3.30;;
67804;SDS011;54603;45.638;11.714;2022-11-14T08:19:08;5.80;;;3.00;;
67804;SDS011;54603;45.638;11.714;2022-11-14T08:21:38;5.20;;;3.40;;
67804;SDS011;54603;45.638;11.714;2022-11-14T08:24:04;3.90;;;3.20;;
67804;SDS011;54603;45.638;11.714;2022-11-14T08:26:30;5.00;;;3.10;;
67804;SDS011;54603;45.638;11.714;2022-11-14T08:28:56;3.90;;;3.10;;
67804;SDS011;54603;45.638;11.714;2022-11-14T08:31:22;8.20;;;3.30;;
67804;SDS011;54603;45.638;11.714;2022-11-14T08:33:50;6.50;;;2.60;;
67804;SDS011;54603;45.638;11.714;2022-11-14T08:36:17;3.60;;;2.30;;
67804;SDS011;54603;45.638;11.714;2022-11-14T08:38:43;3.40;;;2.80;;
67804;SDS011;54603;45.638;11.714;2022-11-14T08:41:09;4.70;;;2.80;;
67804;SDS011;54603;45.638;11.714;2022-11-14T08:43:34;4.60;;;3.30;;
67804;SDS011;54603;45.638;11.714;2022-11-14T08:46:01;3.40;;;2.90;;
67804;SDS011;54603;45.638;11.714;2022-11-14T08:48:28;4.40;;;2.90;;
67804;SDS011;54603;45.638;11.714;2022-11-14T08:50:55;3.60;;;2.80;;
67804;SDS011;54603;45.638;11.714;2022-11-14T08:53:20;5.50;;;3.40;;
67804;SDS011;54603;45.638;11.714;2022-11-14T08:55:46;3.60;;;3.10;;
67804;SDS011;54603;45.638;11.714;2022-11-14T08:58:13;4.40;;;3.30;;
67804;SDS011;54603;45.638;11.714;2022-11-14T09:00:39;3.90;;;3.10;;
67804;SDS011;54603;45.638;11.714;2022-11-14T09:03:08;3.70;;;3.00;;
67804;SDS011;54603;45.638;11.714;2022-11-14T09:05:35;3.80;;;2.70;;
67804;SDS011;54603;45.638;11.714;2022-11-14T09:08:00;3.70;;;2.50;;
67804;SDS011;54603;45.638;11.714;2022-11-14T09:10:27;3.30;;;3.00;;
67804;SDS011;54603;45.638;11.714;2022-11-14T09:12:59;4.00;;;3.10;;
67804;SDS011;54603;45.638;11.714;2022-11-14T09:15:26;4.20;;;3.00;;
67804;SDS011;54603;45.638;11.714;2022-11-14T09:17:53;4.20;;;3.20;;
67804;SDS011;54603;45.638;11.714;2022-11-14T09:20:19;3.70;;;2.90;;
67804;SDS011;54603;45.638;11.714;2022-11-14T09:22:46;7.40;;;3.30;;
67804;SDS011;54603;45.638;11.714;2022-11-14T09:25:11;3.60;;;3.20;;
67804;SDS011;54603;45.638;11.714;2022-11-14T09:27:37;3.50;;;2.90;;
67804;SDS011;54603;45.638;11.714;2022-11-14T09:30:03;3.40;;;3.10;;
67804;SDS011;54603;45.638;11.714;2022-11-14T09:32:30;4.90;;;2.90;;
67804;SDS011;54603;45.638;11.714;2022-11-14T09:34:55;4.60;;;3.20;;
67804;SDS011;54603;45.638;11.714;2022-11-14T09:37:21;4.00;;;2.70;;
67804;SDS011;54603;45.638;11.714;2022-11-14T09:39:47;4.50;;;3.10;;
67804;SDS011;54603;45.638;11.714;2022-11-14T09:45:02;3.20;;;2.90;;
67804;SDS011;54603;45.638;11.714;2022-11-14T09:47:44;5.30;;;3.20;;
67804;SDS011;54603;45.638;11.714;2022-11-14T09:52:58;3.60;;;2.80;;
67804;SDS011;54603;45.638;11.714;2022-11-14T09:55:28;7.20;;;3.20;;
67804;SDS011;54603;45.638;11.714;2022-11-14T09:57:57;5.40;;;3.20;;
67804;SDS011;54603;45.638;11.714;2022-11-14T10:00:25;7.40;;;3.40;;
67804;SDS011;54603;45.638;11.714;2022-11-14T10:03:13;3.30;;;2.90;;
67804;SDS011;54603;45.638;11.714;2022-11-14T10:11:42;6.70;;;2.80;;
67804;SDS011;54603;45.638;11.714;2022-11-14T10:17:20;4.80;;;3.20;;
67804;SDS011;54603;45.638;11.714;2022-11-14T10:27:26;6.30;;;3.90;;
67804;SDS011;54603;45.638;11.714;2022-11-14T10:30:03;6.40;;;3.80;;
67804;SDS011;54603;45.638;11.714;2022-11-14T10:35:30;4.20;;;3.30;;
67804;SDS011;54603;45.638;11.714;2022-11-14T10:38:26;10.90;;;3.80;;
67804;SDS011;54603;45.638;11.714;2022-11-14T10:40:57;6.20;;;3.60;;
67804;SDS011;54603;45.638;11.714;2022-11-14T10:43:29;6.60;;;4.00;;
67804;SDS011;54603;45.638;11.714;2022-11-14T10:51:00;6.20;;;4.20;;
67804;SDS011;54603;45.638;11.714;2022-11-14T10:53:36;6.50;;;4.20;;
67804;SDS011;54603;45.638;11.714;2022-11-14T10:56:11;8.50;;;4.40;;
67804;SDS011;54603;45.638;11.714;2022-11-14T10:58:38;6.40;;;3.90;;
67804;SDS011;54603;45.638;11.714;2022-11-14T11:04:17;4.80;;;4.20;;
67804;SDS011;54603;45.638;11.714;2022-11-14T11:06:47;6.80;;;4.40;;
67804;SDS011;54603;45.638;11.714;2022-11-14T11:12:05;9.00;;;4.40;;
67804;SDS011;54603;45.638;11.714;2022-11-14T11:14:32;5.70;;;4.80;;
67804;SDS011;54603;45.638;11.714;2022-11-14T11:19:37;8.80;;;4.70;;
67804;SDS011;54603;45.638;11.714;2022-11-14T11:22:36;5.20;;;4.10;;
67804;SDS011;54603;45.638;11.714;2022-11-14T11:25:00;8.40;;;4.70;;
67804;SDS011;54603;45.638;11.714;2022-11-14T11:27:29;6.80;;;4.10;;
67804;SDS011;54603;45.638;11.714;2022-11-14T11:32:29;7.10;;;4.00;;
67804;SDS011;54603;45.638;11.714;2022-11-14T11:34:56;8.80;;;4.50;;
67804;SDS011;54603;45.638;11.714;2022-11-14T11:37:38;6.80;;;4.30;;
67804;SDS011;54603;45.638;11.714;2022-11-14T11:40:19;8.10;;;4.60;;
67804;SDS011;54603;45.638;11.714;2022-11-14T11:42:50;9.30;;;5.20;;
67804;SDS011;54603;45.638;11.714;2022-11-14T11:45:28;8.00;;;5.10;;
67804;SDS011;54603;45.638;11.714;2022-11-14T11:47:59;6.60;;;4.50;;
67804;SDS011;54603;45.638;11.714;2022-11-14T11:50:28;7.50;;;4.10;;
67804;SDS011;54603;45.638;11.714;2022-11-14T11:53:00;7.00;;;4.50;;
67804;SDS011;54603;45.638;11.714;2022-11-14T11:55:38;7.10;;;4.50;;
67804;SDS011;54603;45.638;11.714;2022-11-14T11:58:11;5.40;;;4.30;;
67804;SDS011;54603;45.638;11.714;2022-11-14T12:01:10;7.00;;;4.30;;
67804;SDS011;54603;45.638;11.714;2022-11-14T12:03:37;6.90;;;4.10;;
67804;SDS011;54603;45.638;11.714;2022-11-14T12:11:33;5.00;;;4.20;;
67804;SDS011;54603;45.638;11.714;2022-11-14T12:19:47;5.50;;;3.90;;
67804;SDS011;54603;45.638;11.714;2022-11-14T12:30:24;6.50;;;3.80;;
67804;SDS011;54603;45.638;11.714;2022-11-14T12:32:56;6.80;;;3.60;;
67804;SDS011;54603;45.638;11.714;2022-11-14T12:35:32;5.00;;;4.00;;
67804;SDS011;54603;45.638;11.714;2022-11-14T12:38:00;4.10;;;3.60;;
67804;SDS011;54603;45.638;11.714;2022-11-14T12:40:33;4.30;;;3.40;;
67804;SDS011;54603;45.638;11.714;2022-11-14T12:43:01;6.10;;;3.80;;
67804;SDS011;54603;45.638;11.714;2022-11-14T12:50:55;6.40;;;3.40;;
67804;SDS011;54603;45.638;11.714;2022-11-14T13:06:37;4.30;;;3.10;;
67804;SDS011;54603;45.638;11.714;2022-11-14T13:09:31;4.70;;;3.20;;
67804;SDS011;54603;45.638;11.714;2022-11-14T13:12:17;4.90;;;3.10;;
67804;SDS011;54603;45.638;11.714;2022-11-14T13:15:20;5.10;;;3.10;;
67804;SDS011;54603;45.638;11.714;2022-11-14T13:24:05;3.40;;;2.90;;
67804;SDS011;54603;45.638;11.714;2022-11-14T13:28:56;5.10;;;3.40;;
67804;SDS011;54603;45.638;11.714;2022-11-14T13:34:00;4.50;;;3.10;;
67804;SDS011;54603;45.638;11.714;2022-11-14T13:36:51;6.00;;;2.80;;
67804;SDS011;54603;45.638;11.714;2022-11-14T13:39:21;4.00;;;2.90;;
67804;SDS011;54603;45.638;11.714;2022-11-14T13:42:04;3.70;;;3.00;;
67804;SDS011;54603;45.638;11.714;2022-11-14T13:44:55;4.60;;;2.90;;
67804;SDS011;54603;45.638;11.714;2022-11-14T13:48:05;4.00;;;3.00;;
67804;SDS011;54603;45.638;11.714;2022-11-14T13:50:49;3.50;;;2.90;;
67804;SDS011;54603;45.638;11.714;2022-11-14T13:53:18;4.70;;;3.00;;
67804;SDS011;54603;45.638;11.714;2022-11-14T14:12:26;4.40;;;3.40;;
67804;SDS011;54603;45.638;11.714;2022-11-14T14:17:57;3.30;;;3.00;;
67804;SDS011;54603;45.638;11.714;2022-11-14T14:23:57;6.20;;;3.30;;
67804;SDS011;54603;45.638;11.714;2022-11-14T14:26:53;5.60;;;3.20;;
67804;SDS011;54603;45.638;11.714;2022-11-14T14:31:48;5.20;;;3.30;;
67804;SDS011;54603;45.638;11.714;2022-11-14T14:34:21;4.20;;;2.90;;
67804;SDS011;54603;45.638;11.714;2022-11-14T14:36:48;4.10;;;3.30;;
67804;SDS011;54603;45.638;11.714;2022-11-14T14:39:16;5.40;;;3.10;;
67804;SDS011;54603;45.638;11.714;2022-11-14T14:41:44;5.20;;;3.10;;
67804;SDS011;54603;45.638;11.714;2022-11-14T14:44:30;8.50;;;3.20;;
67804;SDS011;54603;45.638;11.714;2022-11-14T14:47:26;13.40;;;4.30;;
67804;SDS011;54603;45.638;11.714;2022-11-14T14:50:12;11.30;;;3.80;;
67804;SDS011;54603;45.638;11.714;2022-11-14T14:52:45;8.40;;;3.60;;
67804;SDS011;54603;45.638;11.714;2022-11-14T14:55:26;12.30;;;3.40;;
67804;SDS011;54603;45.638;11.714;2022-11-14T14:58:15;12.10;;;3.90;;
67804;SDS011;54603;45.638;11.714;2022-11-14T15:00:53;11.40;;;3.90;;
67804;SDS011;54603;45.638;11.714;2022-11-14T15:03:19;11.40;;;4.00;;
67804;SDS011;54603;45.638;11.714;2022-11-14T15:05:46;9.70;;;3.80;;
67804;SDS011;54603;45.638;11.714;2022-11-14T15:08:11;13.80;;;4.20;;
67804;SDS011;54603;45.638;11.714;2022-11-14T15:10:38;9.40;;;4.20;;
67804;SDS011;54603;45.638;11.714;2022-11-14T15:13:05;11.40;;;3.70;;
67804;SDS011;54603;45.638;11.714;2022-11-14T15:15:32;9.90;;;3.40;;
67804;SDS011;54603;45.638;11.714;2022-11-14T15:17:58;20.60;;;2.90;;
67804;SDS011;54603;45.638;11.714;2022-11-14T15:20:27;9.20;;;3.20;;
67804;SDS011;54603;45.638;11.714;2022-11-14T15:23:03;9.70;;;3.60;;
67804;SDS011;54603;45.638;11.714;2022-11-14T15:25:39;10.70;;;4.20;;
67804;SDS011;54603;45.638;11.714;2022-11-14T15:28:11;11.40;;;4.50;;
67804;SDS011;54603;45.638;11.714;2022-11-14T15:30:41;13.50;;;5.70;;
67804;SDS011;54603;45.638;11.714;2022-11-14T15:33:27;10.80;;;5.70;;
67804;SDS011;54603;45.638;11.714;2022-11-14T15:36:05;10.20;;;5.80;;
67804;SDS011;54603;45.638;11.714;2022-11-14T15:39:44;12.60;;;6.80;;
67804;SDS011;54603;45.638;11.714;2022-11-14T15:42:12;11.60;;;6.80;;
67804;SDS011;54603;45.638;11.714;2022-11-14T15:44:39;11.20;;;7.40;;
67804;SDS011;54603;45.638;11.714;2022-11-14T15:47:17;13.70;;;7.80;;
67804;SDS011;54603;45.638;11.714;2022-11-14T15:49:56;13.40;;;7.90;;
67804;SDS011;54603;45.638;11.714;2022-11-14T15:52:41;13.00;;;7.50;;
67804;SDS011;54603;45.638;11.714;2022-11-14T15:55:19;14.00;;;7.10;;
67804;SDS011;54603;45.638;11.714;2022-11-14T15:57:49;16.10;;;8.60;;
67804;SDS011;54603;45.638;11.714;2022-11-14T16:00:15;14.30;;;8.20;;
67804;SDS011;54603;45.638;11.714;2022-11-14T16:02:43;16.20;;;8.80;;
67804;SDS011;54603;45.638;11.714;2022-11-14T16:05:14;16.00;;;8.40;;
67804;SDS011;54603;45.638;11.714;2022-11-14T16:07:40;14.80;;;8.10;;
67804;SDS011;54603;45.638;11.714;2022-11-14T16:10:13;13.80;;;8.20;;
67804;SDS011;54603;45.638;11.714;2022-11-14T16:12:39;13.50;;;8.50;;
67804;SDS011;54603;45.638;11.714;2022-11-14T16:15:05;14.60;;;8.00;;
67804;SDS011;54603;45.638;11.714;2022-11-14T16:17:38;20.90;;;8.90;;
67804;SDS011;54603;45.638;11.714;2022-11-14T16:20:06;12.90;;;7.80;;
67804;SDS011;54603;45.638;11.714;2022-11-14T16:22:35;13.50;;;7.60;;
67804;SDS011;54603;45.638;11.714;2022-11-14T16:25:00;21.10;;;7.30;;
67804;SDS011;54603;45.638;11.714;2022-11-14T16:27:26;18.30;;;7.40;;
67804;SDS011;54603;45.638;11.714;2022-11-14T16:29:52;16.60;;;7.80;;
67804;SDS011;54603;45.638;11.714;2022-11-14T16:32:18;13.60;;;8.10;;
67804;SDS011;54603;45.638;11.714;2022-11-14T16:34:44;13.40;;;7.50;;
67804;SDS011;54603;45.638;11.714;2022-11-14T16:37:10;13.50;;;8.10;;
67804;SDS011;54603;45.638;11.714;2022-11-14T16:39:37;15.90;;;8.20;;
67804;SDS011;54603;45.638;11.714;2022-11-14T16:42:03;13.50;;;8.00;;
67804;SDS011;54603;45.638;11.714;2022-11-14T16:44:32;14.00;;;8.70;;